Terminal Aerodrome Forecast
Issued by NWS Duluth, MN

Home | Current Version | Previous Version | Text Only | Print | Product List | Glossary On
Versions: 1 2 3 4 5 6 7 8 9 10 11 12 13 14 15 16 17 18 19 20 21 22 23 24 25 26 27
458
FTUS43 KDLH 140533
TAFDLH
TAF
KDLH 140533Z 1406/1506 33005KT P6SM SCT011
      TEMPO 1407/1408 BKN011
     FM140800 32005KT P6SM -SN BKN010
     FM141300 31006KT 6SM -SN OVC016
     FM141800 30007KT P6SM -SN BKN020
     FM150400 30007KT P6SM BKN030=

USA.gov is the U.S. government's official web portal to all federal, state and local government web resources and services.